sensor_id;sensor_type;location;lat;lon;timestamp;P1;durP1;ratioP1;P2;durP2;ratioP2
6902;SDS011;20232;49.408;8.702;2023-03-11T05:02:08;5.97;;;2.80;;
6902;SDS011;20232;49.408;8.702;2023-03-11T05:04:33;4.57;;;2.50;;
6902;SDS011;20232;49.408;8.702;2023-03-11T05:06:59;3.57;;;2.40;;
6902;SDS011;20232;49.408;8.702;2023-03-11T05:09:24;5.90;;;2.20;;
6902;SDS011;20232;49.408;8.702;2023-03-11T05:11:50;7.50;;;2.53;;
6902;SDS011;20232;49.408;8.702;2023-03-11T05:14:15;7.13;;;2.83;;
6902;SDS011;20232;49.408;8.702;2023-03-11T05:16:41;6.00;;;2.50;;
6902;SDS011;20232;49.408;8.702;2023-03-11T05:19:06;5.73;;;2.50;;
6902;SDS011;20232;49.408;8.702;2023-03-11T05:21:51;7.37;;;2.60;;
6902;SDS011;20232;49.408;8.702;2023-03-11T05:24:16;7.33;;;2.73;;
6902;SDS011;20232;49.408;8.702;2023-03-11T05:26:42;8.00;;;2.60;;
6902;SDS011;20232;49.408;8.702;2023-03-11T05:29:08;11.77;;;2.70;;
6902;SDS011;20232;49.408;8.702;2023-03-11T05:31:33;5.03;;;2.50;;
6902;SDS011;20232;49.408;8.702;2023-03-11T05:33:59;6.20;;;2.40;;
6902;SDS011;20232;49.408;8.702;2023-03-11T05:36:24;5.97;;;2.57;;
6902;SDS011;20232;49.408;8.702;2023-03-11T05:38:50;5.80;;;3.07;;
6902;SDS011;20232;49.408;8.702;2023-03-11T05:41:17;4.57;;;2.50;;
6902;SDS011;20232;49.408;8.702;2023-03-11T05:43:43;7.00;;;2.80;;
6902;SDS011;20232;49.408;8.702;2023-03-11T05:46:08;5.30;;;2.70;;
6902;SDS011;20232;49.408;8.702;2023-03-11T05:48:35;5.63;;;2.60;;
6902;SDS011;20232;49.408;8.702;2023-03-11T05:51:00;5.47;;;2.60;;
6902;SDS011;20232;49.408;8.702;2023-03-11T05:53:34;5.93;;;2.50;;
6902;SDS011;20232;49.408;8.702;2023-03-11T05:56:00;6.40;;;3.03;;
6902;SDS011;20232;49.408;8.702;2023-03-11T05:58:27;3.87;;;2.50;;
6902;SDS011;20232;49.408;8.702;2023-03-11T06:00:53;8.20;;;2.70;;
6902;SDS011;20232;49.408;8.702;2023-03-11T06:03:18;6.67;;;3.20;;
6902;SDS011;20232;49.408;8.702;2023-03-11T06:05:44;3.07;;;2.70;;
6902;SDS011;20232;49.408;8.702;2023-03-11T06:08:14;7.70;;;2.90;;
6902;SDS011;20232;49.408;8.702;2023-03-11T06:10:41;9.43;;;3.27;;
6902;SDS011;20232;49.408;8.702;2023-03-11T06:13:07;8.10;;;3.53;;
6902;SDS011;20232;49.408;8.702;2023-03-11T06:15:33;8.93;;;2.70;;
6902;SDS011;20232;49.408;8.702;2023-03-11T06:17:59;8.70;;;2.83;;
6902;SDS011;20232;49.408;8.702;2023-03-11T06:20:25;6.90;;;2.73;;
6902;SDS011;20232;49.408;8.702;2023-03-11T06:22:51;4.80;;;3.07;;
6902;SDS011;20232;49.408;8.702;2023-03-11T06:25:17;6.23;;;2.83;;
6902;SDS011;20232;49.408;8.702;2023-03-11T06:27:43;5.00;;;3.10;;
6902;SDS011;20232;49.408;8.702;2023-03-11T06:30:12;10.27;;;2.90;;
6902;SDS011;20232;49.408;8.702;2023-03-11T06:32:38;4.43;;;2.70;;
6902;SDS011;20232;49.408;8.702;2023-03-11T06:35:03;5.50;;;2.90;;
6902;SDS011;20232;49.408;8.702;2023-03-11T06:37:29;9.20;;;3.80;;
6902;SDS011;20232;49.408;8.702;2023-03-11T06:39:55;7.17;;;3.40;;
6902;SDS011;20232;49.408;8.702;2023-03-11T06:42:21;7.30;;;2.87;;
6902;SDS011;20232;49.408;8.702;2023-03-11T06:44:50;6.90;;;3.10;;
6902;SDS011;20232;49.408;8.702;2023-03-11T06:47:16;7.17;;;2.53;;
6902;SDS011;20232;49.408;8.702;2023-03-11T06:49:41;8.40;;;2.97;;
6902;SDS011;20232;49.408;8.702;2023-03-11T06:52:07;10.80;;;2.73;;
6902;SDS011;20232;49.408;8.702;2023-03-11T06:54:34;6.23;;;3.07;;
6902;SDS011;20232;49.408;8.702;2023-03-11T06:57:00;6.50;;;2.90;;
6902;SDS011;20232;49.408;8.702;2023-03-11T06:59:26;7.13;;;2.83;;
6902;SDS011;20232;49.408;8.702;2023-03-11T07:01:52;5.77;;;2.80;;
6902;SDS011;20232;49.408;8.702;2023-03-11T07:04:18;7.33;;;2.87;;
6902;SDS011;20232;49.408;8.702;2023-03-11T07:06:44;8.00;;;2.90;;
6902;SDS011;20232;49.408;8.702;2023-03-11T07:09:10;7.13;;;3.20;;
6902;SDS011;20232;49.408;8.702;2023-03-11T07:11:36;8.87;;;3.00;;
6902;SDS011;20232;49.408;8.702;2023-03-11T07:14:02;5.80;;;2.83;;
6902;SDS011;20232;49.408;8.702;2023-03-11T07:16:28;9.47;;;3.30;;
6902;SDS011;20232;49.408;8.702;2023-03-11T07:18:55;10.40;;;3.30;;
6902;SDS011;20232;49.408;8.702;2023-03-11T07:21:24;11.23;;;3.37;;
6902;SDS011;20232;49.408;8.702;2023-03-11T07:23:51;5.40;;;2.90;;
6902;SDS011;20232;49.408;8.702;2023-03-11T07:26:18;9.23;;;2.67;;
6902;SDS011;20232;49.408;8.702;2023-03-11T07:28:44;6.27;;;2.70;;
6902;SDS011;20232;49.408;8.702;2023-03-11T07:31:14;7.50;;;2.70;;
6902;SDS011;20232;49.408;8.702;2023-03-11T07:33:42;6.20;;;2.90;;
6902;SDS011;20232;49.408;8.702;2023-03-11T07:36:09;7.93;;;2.73;;
6902;SDS011;20232;49.408;8.702;2023-03-11T07:38:37;7.37;;;2.67;;
6902;SDS011;20232;49.408;8.702;2023-03-11T07:41:03;7.13;;;2.70;;
6902;SDS011;20232;49.408;8.702;2023-03-11T07:43:29;7.77;;;2.80;;
6902;SDS011;20232;49.408;8.702;2023-03-11T07:46:28;6.63;;;2.60;;
6902;SDS011;20232;49.408;8.702;2023-03-11T07:48:47;8.83;;;2.80;;
6902;SDS011;20232;49.408;8.702;2023-03-11T07:51:15;5.43;;;2.43;;
6902;SDS011;20232;49.408;8.702;2023-03-11T07:53:46;8.53;;;2.63;;
6902;SDS011;20232;49.408;8.702;2023-03-11T07:56:12;7.27;;;2.63;;
6902;SDS011;20232;49.408;8.702;2023-03-11T07:58:40;6.67;;;2.63;;
6902;SDS011;20232;49.408;8.702;2023-03-11T08:01:13;6.53;;;2.60;;
6902;SDS011;20232;49.408;8.702;2023-03-11T08:03:42;6.33;;;2.53;;
6902;SDS011;20232;49.408;8.702;2023-03-11T08:06:15;5.37;;;2.60;;
6902;SDS011;20232;49.408;8.702;2023-03-11T08:08:43;7.33;;;2.40;;
6902;SDS011;20232;49.408;8.702;2023-03-11T08:11:09;7.93;;;3.00;;
6902;SDS011;20232;49.408;8.702;2023-03-11T08:13:37;7.33;;;3.00;;
6902;SDS011;20232;49.408;8.702;2023-03-11T08:16:03;7.20;;;2.87;;
6902;SDS011;20232;49.408;8.702;2023-03-11T08:18:30;7.93;;;3.17;;
6902;SDS011;20232;49.408;8.702;2023-03-11T08:20:56;7.87;;;2.80;;
6902;SDS011;20232;49.408;8.702;2023-03-11T08:23:22;7.03;;;2.80;;
6902;SDS011;20232;49.408;8.702;2023-03-11T08:25:48;9.33;;;3.03;;
6902;SDS011;20232;49.408;8.702;2023-03-11T08:28:14;5.57;;;2.90;;
6902;SDS011;20232;49.408;8.702;2023-03-11T08:30:40;8.77;;;2.93;;
6902;SDS011;20232;49.408;8.702;2023-03-11T08:33:05;6.63;;;2.70;;
6902;SDS011;20232;49.408;8.702;2023-03-11T08:35:31;10.93;;;3.37;;
6902;SDS011;20232;49.408;8.702;2023-03-11T08:37:57;8.27;;;3.13;;
6902;SDS011;20232;49.408;8.702;2023-03-11T08:40:22;7.63;;;3.00;;
6902;SDS011;20232;49.408;8.702;2023-03-11T08:42:48;5.90;;;2.93;;
6902;SDS011;20232;49.408;8.702;2023-03-11T08:45:14;6.80;;;3.07;;
6902;SDS011;20232;49.408;8.702;2023-03-11T08:47:40;5.17;;;2.80;;
6902;SDS011;20232;49.408;8.702;2023-03-11T08:50:07;6.97;;;2.63;;
6902;SDS011;20232;49.408;8.702;2023-03-11T08:52:36;8.30;;;3.20;;
6902;SDS011;20232;49.408;8.702;2023-03-11T08:55:02;8.27;;;3.00;;
6902;SDS011;20232;49.408;8.702;2023-03-11T08:57:29;9.30;;;3.00;;
6902;SDS011;20232;49.408;8.702;2023-03-11T08:59:55;8.27;;;3.10;;
6902;SDS011;20232;49.408;8.702;2023-03-11T09:02:22;9.80;;;6.60;;
6902;SDS011;20232;49.408;8.702;2023-03-11T09:04:49;9.17;;;4.30;;
6902;SDS011;20232;49.408;8.702;2023-03-11T09:07:15;7.07;;;3.37;;
6902;SDS011;20232;49.408;8.702;2023-03-11T09:09:41;10.17;;;3.60;;
6902;SDS011;20232;49.408;8.702;2023-03-11T09:12:07;7.37;;;3.17;;
6902;SDS011;20232;49.408;8.702;2023-03-11T09:14:33;8.10;;;3.37;;
6902;SDS011;20232;49.408;8.702;2023-03-11T09:16:59;7.93;;;2.70;;
6902;SDS011;20232;49.408;8.702;2023-03-11T09:19:25;9.53;;;3.10;;
6902;SDS011;20232;49.408;8.702;2023-03-11T09:21:50;7.63;;;3.23;;
6902;SDS011;20232;49.408;8.702;2023-03-11T09:24:16;5.63;;;2.83;;
6902;SDS011;20232;49.408;8.702;2023-03-11T09:26:42;6.73;;;3.10;;
6902;SDS011;20232;49.408;8.702;2023-03-11T09:29:07;6.50;;;2.43;;
6902;SDS011;20232;49.408;8.702;2023-03-11T09:31:33;5.10;;;2.53;;
6902;SDS011;20232;49.408;8.702;2023-03-11T09:33:58;5.50;;;2.50;;
6902;SDS011;20232;49.408;8.702;2023-03-11T09:36:24;5.27;;;2.57;;
6902;SDS011;20232;49.408;8.702;2023-03-11T09:38:50;5.40;;;2.13;;
6902;SDS011;20232;49.408;8.702;2023-03-11T09:46:29;10.40;;;2.70;;
6902;SDS011;20232;49.408;8.702;2023-03-11T09:52:13;4.27;;;2.17;;
6902;SDS011;20232;49.408;8.702;2023-03-11T09:54:39;7.80;;;2.17;;
6902;SDS011;20232;49.408;8.702;2023-03-11T09:57:17;6.60;;;2.80;;
6902;SDS011;20232;49.408;8.702;2023-03-11T09:59:46;5.77;;;2.60;;
6902;SDS011;20232;49.408;8.702;2023-03-11T10:02:19;5.13;;;2.60;;
6902;SDS011;20232;49.408;8.702;2023-03-11T10:04:51;7.57;;;2.43;;
6902;SDS011;20232;49.408;8.702;2023-03-11T10:07:32;7.13;;;3.10;;
6902;SDS011;20232;49.408;8.702;2023-03-11T10:10:02;5.37;;;2.57;;
6902;SDS011;20232;49.408;8.702;2023-03-11T10:23:25;4.60;;;2.20;;
6902;SDS011;20232;49.408;8.702;2023-03-11T10:26:14;3.90;;;2.10;;
6902;SDS011;20232;49.408;8.702;2023-03-11T10:28:46;4.10;;;1.93;;
6902;SDS011;20232;49.408;8.702;2023-03-11T10:37:02;5.10;;;2.10;;
6902;SDS011;20232;49.408;8.702;2023-03-11T10:39:34;4.73;;;2.13;;
6902;SDS011;20232;49.408;8.702;2023-03-11T10:42:04;5.53;;;2.10;;
6902;SDS011;20232;49.408;8.702;2023-03-11T10:44:35;6.00;;;2.30;;
6902;SDS011;20232;49.408;8.702;2023-03-11T10:47:03;4.07;;;2.37;;
6902;SDS011;20232;49.408;8.702;2023-03-11T10:49:29;8.23;;;2.57;;
6902;SDS011;20232;49.408;8.702;2023-03-11T10:51:54;4.30;;;2.00;;
6902;SDS011;20232;49.408;8.702;2023-03-11T10:54:34;5.37;;;2.37;;
6902;SDS011;20232;49.408;8.702;2023-03-11T10:59:56;3.70;;;1.90;;
6902;SDS011;20232;49.408;8.702;2023-03-11T11:02:28;4.17;;;1.90;;
6902;SDS011;20232;49.408;8.702;2023-03-11T11:05:38;5.40;;;2.00;;
6902;SDS011;20232;49.408;8.702;2023-03-11T11:10:37;4.20;;;2.20;;
6902;SDS011;20232;49.408;8.702;2023-03-11T11:13:16;3.00;;;2.10;;
6902;SDS011;20232;49.408;8.702;2023-03-11T11:15:59;4.27;;;2.20;;
6902;SDS011;20232;49.408;8.702;2023-03-11T11:18:35;3.37;;;2.00;;
6902;SDS011;20232;49.408;8.702;2023-03-11T11:21:16;3.83;;;2.20;;
6902;SDS011;20232;49.408;8.702;2023-03-11T11:24:20;3.13;;;2.20;;
6902;SDS011;20232;49.408;8.702;2023-03-11T11:29:29;5.00;;;2.30;;
6902;SDS011;20232;49.408;8.702;2023-03-11T11:32:09;6.27;;;2.13;;
6902;SDS011;20232;49.408;8.702;2023-03-11T11:34:42;5.23;;;2.40;;
6902;SDS011;20232;49.408;8.702;2023-03-11T11:37:28;5.00;;;2.30;;
6902;SDS011;20232;49.408;8.702;2023-03-11T11:42:43;4.77;;;2.20;;
6902;SDS011;20232;49.408;8.702;2023-03-11T11:45:25;7.07;;;2.40;;
6902;SDS011;20232;49.408;8.702;2023-03-11T11:47:59;7.80;;;2.00;;
6902;SDS011;20232;49.408;8.702;2023-03-11T11:50:50;4.33;;;2.17;;
6902;SDS011;20232;49.408;8.702;2023-03-11T11:53:26;3.53;;;1.83;;
6902;SDS011;20232;49.408;8.702;2023-03-11T11:55:58;6.03;;;2.10;;
6902;SDS011;20232;49.408;8.702;2023-03-11T11:58:25;4.53;;;2.37;;
6902;SDS011;20232;49.408;8.702;2023-03-11T12:01:04;5.10;;;2.20;;
6902;SDS011;20232;49.408;8.702;2023-03-11T12:04:00;7.97;;;2.43;;
6902;SDS011;20232;49.408;8.702;2023-03-11T12:06:42;3.17;;;2.10;;
6902;SDS011;20232;49.408;8.702;2023-03-11T12:09:46;7.50;;;2.60;;
6902;SDS011;20232;49.408;8.702;2023-03-11T12:12:26;7.33;;;2.47;;
6902;SDS011;20232;49.408;8.702;2023-03-11T12:15:23;4.63;;;2.20;;
6902;SDS011;20232;49.408;8.702;2023-03-11T12:17:53;5.80;;;2.17;;
6902;SDS011;20232;49.408;8.702;2023-03-11T12:20:29;4.97;;;2.13;;
6902;SDS011;20232;49.408;8.702;2023-03-11T12:31:11;4.80;;;1.67;;
6902;SDS011;20232;49.408;8.702;2023-03-11T12:33:54;3.73;;;1.90;;
6902;SDS011;20232;49.408;8.702;2023-03-11T12:36:32;5.17;;;2.10;;
6902;SDS011;20232;49.408;8.702;2023-03-11T12:39:01;3.90;;;2.00;;
6902;SDS011;20232;49.408;8.702;2023-03-11T12:41:36;3.87;;;1.97;;
6902;SDS011;20232;49.408;8.702;2023-03-11T12:44:11;3.87;;;1.90;;
6902;SDS011;20232;49.408;8.702;2023-03-11T12:46:59;4.27;;;1.53;;
6902;SDS011;20232;49.408;8.702;2023-03-11T12:49:29;4.30;;;1.77;;
6902;SDS011;20232;49.408;8.702;2023-03-11T12:54:34;3.03;;;1.60;;
6902;SDS011;20232;49.408;8.702;2023-03-11T13:08:43;4.57;;;2.67;;
6902;SDS011;20232;49.408;8.702;2023-03-11T13:11:25;4.07;;;1.90;;
6902;SDS011;20232;49.408;8.702;2023-03-11T13:16:42;3.17;;;2.10;;
6902;SDS011;20232;49.408;8.702;2023-03-11T13:19:27;6.43;;;2.10;;
6902;SDS011;20232;49.408;8.702;2023-03-11T13:21:58;4.00;;;1.70;;
6902;SDS011;20232;49.408;8.702;2023-03-11T13:40:35;4.13;;;1.90;;
6902;SDS011;20232;49.408;8.702;2023-03-11T13:43:19;3.30;;;1.93;;
6902;SDS011;20232;49.408;8.702;2023-03-11T13:45:51;4.17;;;1.83;;
6902;SDS011;20232;49.408;8.702;2023-03-11T13:48:32;3.97;;;2.30;;
6902;SDS011;20232;49.408;8.702;2023-03-11T13:51:24;3.63;;;2.23;;
6902;SDS011;20232;49.408;8.702;2023-03-11T13:54:07;6.10;;;2.10;;
6902;SDS011;20232;49.408;8.702;2023-03-11T13:56:42;2.70;;;2.00;;
6902;SDS011;20232;49.408;8.702;2023-03-11T13:59:23;4.80;;;2.40;;
6902;SDS011;20232;49.408;8.702;2023-03-11T14:04:35;4.30;;;2.23;;
6902;SDS011;20232;49.408;8.702;2023-03-11T14:07:22;4.83;;;2.27;;
6902;SDS011;20232;49.408;8.702;2023-03-11T14:09:48;3.03;;;2.07;;
6902;SDS011;20232;49.408;8.702;2023-03-11T14:12:14;4.43;;;2.33;;
6902;SDS011;20232;49.408;8.702;2023-03-11T14:17:24;3.33;;;2.23;;
6902;SDS011;20232;49.408;8.702;2023-03-11T14:22:28;5.27;;;2.07;;
6902;SDS011;20232;49.408;8.702;2023-03-11T14:24:56;4.63;;;2.53;;
6902;SDS011;20232;49.408;8.702;2023-03-11T14:27:22;5.63;;;2.50;;
6902;SDS011;20232;49.408;8.702;2023-03-11T14:29:48;3.33;;;2.20;;
6902;SDS011;20232;49.408;8.702;2023-03-11T14:32:27;4.30;;;2.40;;
6902;SDS011;20232;49.408;8.702;2023-03-11T14:34:57;3.70;;;2.67;;
6902;SDS011;20232;49.408;8.702;2023-03-11T14:40:02;6.03;;;2.60;;
6902;SDS011;20232;49.408;8.702;2023-03-11T14:42:47;4.57;;;2.30;;
6902;SDS011;20232;49.408;8.702;2023-03-11T14:45:17;3.60;;;2.10;;
6902;SDS011;20232;49.408;8.702;2023-03-11T14:50:37;4.27;;;2.50;;
6902;SDS011;20232;49.408;8.702;2023-03-11T14:56:18;3.40;;;2.10;;
6902;SDS011;20232;49.408;8.702;2023-03-11T14:58:52;4.10;;;2.30;;
6902;SDS011;20232;49.408;8.702;2023-03-11T15:01:28;5.73;;;2.30;;
6902;SDS011;20232;49.408;8.702;2023-03-11T15:04:31;6.13;;;2.47;;
6902;SDS011;20232;49.408;8.702;2023-03-11T15:06:56;4.57;;;2.40;;
6902;SDS011;20232;49.408;8.702;2023-03-11T15:09:22;4.67;;;2.37;;
6902;SDS011;20232;49.408;8.702;2023-03-11T15:11:54;4.43;;;2.40;;
6902;SDS011;20232;49.408;8.702;2023-03-11T15:16:53;6.13;;;2.27;;
6902;SDS011;20232;49.408;8.702;2023-03-11T15:21:46;4.37;;;2.40;;
6902;SDS011;20232;49.408;8.702;2023-03-11T15:24:23;3.07;;;2.37;;
6902;SDS011;20232;49.408;8.702;2023-03-11T15:26:55;4.67;;;2.50;;
6902;SDS011;20232;49.408;8.702;2023-03-11T15:29:32;3.63;;;2.40;;
6902;SDS011;20232;49.408;8.702;2023-03-11T15:31:59;5.33;;;2.80;;
6902;SDS011;20232;49.408;8.702;2023-03-11T15:37:34;5.47;;;2.30;;
6902;SDS011;20232;49.408;8.702;2023-03-11T15:45:38;4.50;;;2.53;;
6902;SDS011;20232;49.408;8.702;2023-03-11T15:48:04;5.63;;;2.40;;
6902;SDS011;20232;49.408;8.702;2023-03-11T15:50:30;2.43;;;2.23;;
6902;SDS011;20232;49.408;8.702;2023-03-11T15:52:57;3.47;;;2.20;;
6902;SDS011;20232;49.408;8.702;2023-03-11T15:55:23;4.27;;;2.10;;
6902;SDS011;20232;49.408;8.702;2023-03-11T15:57:52;3.03;;;1.90;;
6902;SDS011;20232;49.408;8.702;2023-03-11T16:00:24;6.30;;;2.50;;
6902;SDS011;20232;49.408;8.702;2023-03-11T16:02:50;3.13;;;2.23;;
6902;SDS011;20232;49.408;8.702;2023-03-11T16:05:24;3.63;;;2.47;;
6902;SDS011;20232;49.408;8.702;2023-03-11T16:07:50;5.73;;;2.93;;
6902;SDS011;20232;49.408;8.702;2023-03-11T16:10:17;4.33;;;2.50;;
6902;SDS011;20232;49.408;8.702;2023-03-11T16:12:48;3.23;;;2.30;;
6902;SDS011;20232;49.408;8.702;2023-03-11T16:15:20;5.17;;;2.23;;
6902;SDS011;20232;49.408;8.702;2023-03-11T16:17:52;3.90;;;2.30;;
6902;SDS011;20232;49.408;8.702;2023-03-11T16:20:20;3.80;;;2.40;;
6902;SDS011;20232;49.408;8.702;2023-03-11T16:22:48;5.80;;;2.53;;
6902;SDS011;20232;49.408;8.702;2023-03-11T16:25:18;8.10;;;2.80;;
6902;SDS011;20232;49.408;8.702;2023-03-11T16:27:50;4.07;;;2.47;;
6902;SDS011;20232;49.408;8.702;2023-03-11T16:30:18;4.00;;;2.33;;
6902;SDS011;20232;49.408;8.702;2023-03-11T16:32:44;7.67;;;2.30;;
6902;SDS011;20232;49.408;8.702;2023-03-11T16:35:10;5.20;;;2.70;;
6902;SDS011;20232;49.408;8.702;2023-03-11T16:37:36;4.47;;;2.47;;
6902;SDS011;20232;49.408;8.702;2023-03-11T16:40:03;5.10;;;2.80;;
6902;SDS011;20232;49.408;8.702;2023-03-11T16:42:31;3.77;;;2.60;;
6902;SDS011;20232;49.408;8.702;2023-03-11T16:44:56;3.57;;;2.30;;
6902;SDS011;20232;49.408;8.702;2023-03-11T16:47:22;3.93;;;2.67;;
6902;SDS011;20232;49.408;8.702;2023-03-11T16:49:48;5.77;;;2.87;;
6902;SDS011;20232;49.408;8.702;2023-03-11T16:52:17;6.40;;;2.60;;
6902;SDS011;20232;49.408;8.702;2023-03-11T16:54:44;3.27;;;2.30;;
6902;SDS011;20232;49.408;8.702;2023-03-11T16:57:11;5.33;;;2.80;;
6902;SDS011;20232;49.408;8.702;2023-03-11T16:59:37;4.33;;;2.40;;
6902;SDS011;20232;49.408;8.702;2023-03-11T17:02:03;4.40;;;2.90;;
6902;SDS011;20232;49.408;8.702;2023-03-11T17:04:28;4.97;;;2.90;;
6902;SDS011;20232;49.408;8.702;2023-03-11T17:06:54;5.13;;;2.47;;
6902;SDS011;20232;49.408;8.702;2023-03-11T17:09:20;7.50;;;2.90;;
6902;SDS011;20232;49.408;8.702;2023-03-11T17:11:47;4.93;;;2.50;;
6902;SDS011;20232;49.408;8.702;2023-03-11T17:14:14;5.07;;;2.70;;
6902;SDS011;20232;49.408;8.702;2023-03-11T17:16:40;4.73;;;3.10;;
6902;SDS011;20232;49.408;8.702;2023-03-11T17:19:06;3.83;;;2.60;;
6902;SDS011;20232;49.408;8.702;2023-03-11T17:21:32;6.93;;;2.50;;
6902;SDS011;20232;49.408;8.702;2023-03-11T17:23:57;3.27;;;2.70;;
6902;SDS011;20232;49.408;8.702;2023-03-11T17:26:23;6.30;;;2.80;;
6902;SDS011;20232;49.408;8.702;2023-03-11T17:28:52;5.10;;;2.60;;
6902;SDS011;20232;49.408;8.702;2023-03-11T17:31:18;7.70;;;3.03;;
6902;SDS011;20232;49.408;8.702;2023-03-11T17:33:44;6.97;;;3.20;;
6902;SDS011;20232;49.408;8.702;2023-03-11T17:36:11;4.17;;;2.47;;
6902;SDS011;20232;49.408;8.702;2023-03-11T17:38:40;4.53;;;3.30;;
6902;SDS011;20232;49.408;8.702;2023-03-11T17:41:06;5.10;;;2.70;;
6902;SDS011;20232;49.408;8.702;2023-03-11T17:43:40;3.57;;;2.57;;
6902;SDS011;20232;49.408;8.702;2023-03-11T17:46:07;7.83;;;2.50;;
6902;SDS011;20232;49.408;8.702;2023-03-11T17:48:38;5.37;;;3.07;;
6902;SDS011;20232;49.408;8.702;2023-03-11T17:51:08;6.23;;;3.20;;
6902;SDS011;20232;49.408;8.702;2023-03-11T17:53:37;5.20;;;2.60;;
6902;SDS011;20232;49.408;8.702;2023-03-11T17:56:04;5.27;;;2.80;;
6902;SDS011;20232;49.408;8.702;2023-03-11T17:58:31;4.90;;;2.70;;
6902;SDS011;20232;49.408;8.702;2023-03-11T18:00:56;3.83;;;2.63;;
6902;SDS011;20232;49.408;8.702;2023-03-11T18:03:23;3.67;;;2.63;;
6902;SDS011;20232;49.408;8.702;2023-03-11T18:05:52;5.70;;;3.30;;
6902;SDS011;20232;49.408;8.702;2023-03-11T18:08:19;6.90;;;2.60;;
6902;SDS011;20232;49.408;8.702;2023-03-11T18:10:49;3.87;;;3.20;;
6902;SDS011;20232;49.408;8.702;2023-03-11T18:13:19;2.60;;;2.40;;
6902;SDS011;20232;49.408;8.702;2023-03-11T18:15:45;5.43;;;2.60;;
6902;SDS011;20232;49.408;8.702;2023-03-11T18:18:11;5.20;;;2.97;;
6902;SDS011;20232;49.408;8.702;2023-03-11T18:20:37;3.73;;;2.93;;
6902;SDS011;20232;49.408;8.702;2023-03-11T18:23:03;9.23;;;3.37;;
6902;SDS011;20232;49.408;8.702;2023-03-11T18:25:29;5.33;;;2.80;;
6902;SDS011;20232;49.408;8.702;2023-03-11T18:27:55;5.80;;;2.83;;
6902;SDS011;20232;49.408;8.702;2023-03-11T18:30:21;4.03;;;2.80;;
6902;SDS011;20232;49.408;8.702;2023-03-11T18:32:47;5.33;;;2.70;;
6902;SDS011;20232;49.408;8.702;2023-03-11T18:35:13;6.40;;;2.60;;
6902;SDS011;20232;49.408;8.702;2023-03-11T18:37:41;3.67;;;2.57;;
6902;SDS011;20232;49.408;8.702;2023-03-11T18:40:07;5.67;;;3.40;;
6902;SDS011;20232;49.408;8.702;2023-03-11T18:42:34;5.67;;;3.10;;
6902;SDS011;20232;49.408;8.702;2023-03-11T18:44:59;5.43;;;3.20;;
6902;SDS011;20232;49.408;8.702;2023-03-11T18:47:25;6.20;;;3.50;;
6902;SDS011;20232;49.408;8.702;2023-03-11T18:49:51;5.33;;;3.40;;
6902;SDS011;20232;49.408;8.702;2023-03-11T18:52:17;10.77;;;3.43;;
6902;SDS011;20232;49.408;8.702;2023-03-11T18:54:42;7.47;;;3.77;;
6902;SDS011;20232;49.408;8.702;2023-03-11T18:57:08;3.93;;;2.60;;
6902;SDS011;20232;49.408;8.702;2023-03-11T18:59:34;3.43;;;2.70;;
6902;SDS011;20232;49.408;8.702;2023-03-11T19:01:59;7.17;;;2.80;;
6902;SDS011;20232;49.408;8.702;2023-03-11T19:04:25;6.50;;;3.80;;
6902;SDS011;20232;49.408;8.702;2023-03-11T19:06:52;13.00;;;8.90;;
6902;SDS011;20232;49.408;8.702;2023-03-11T19:09:18;11.27;;;6.30;;
6902;SDS011;20232;49.408;8.702;2023-03-11T19:11:43;10.60;;;6.17;;
6902;SDS011;20232;49.408;8.702;2023-03-11T19:14:09;6.53;;;4.33;;
6902;SDS011;20232;49.408;8.702;2023-03-11T19:16:36;7.50;;;3.90;;
6902;SDS011;20232;49.408;8.702;2023-03-11T19:19:01;7.40;;;4.83;;
6902;SDS011;20232;49.408;8.702;2023-03-11T19:21:27;8.23;;;3.67;;
6902;SDS011;20232;49.408;8.702;2023-03-11T19:23:53;5.40;;;3.20;;
6902;SDS011;20232;49.408;8.702;2023-03-11T19:26:21;5.50;;;3.10;;
6902;SDS011;20232;49.408;8.702;2023-03-11T19:28:47;5.53;;;3.10;;
6902;SDS011;20232;49.408;8.702;2023-03-11T19:31:13;5.80;;;3.90;;
6902;SDS011;20232;49.408;8.702;2023-03-11T19:33:39;5.23;;;3.00;;
6902;SDS011;20232;49.408;8.702;2023-03-11T19:36:05;5.47;;;3.03;;
6902;SDS011;20232;49.408;8.702;2023-03-11T19:38:32;10.43;;;4.20;;
6902;SDS011;20232;49.408;8.702;2023-03-11T19:40:59;9.50;;;5.20;;
6902;SDS011;20232;49.408;8.702;2023-03-11T19:43:27;8.63;;;5.60;;
6902;SDS011;20232;49.408;8.702;2023-03-11T19:45:53;10.43;;;4.90;;
6902;SDS011;20232;49.408;8.702;2023-03-11T19:48:19;9.40;;;5.57;;
6902;SDS011;20232;49.408;8.702;2023-03-11T19:50:49;10.93;;;6.70;;
6902;SDS011;20232;49.408;8.702;2023-03-11T19:53:15;13.63;;;5.23;;
6902;SDS011;20232;49.408;8.702;2023-03-11T19:55:46;13.93;;;5.70;;
6902;SDS011;20232;49.408;8.702;2023-03-11T19:58:14;8.33;;;5.33;;
6902;SDS011;20232;49.408;8.702;2023-03-11T20:00:40;8.80;;;5.60;;
6902;SDS011;20232;49.408;8.702;2023-03-11T20:03:07;7.50;;;4.97;;
6902;SDS011;20232;49.408;8.702;2023-03-11T20:05:34;7.00;;;4.10;;
6902;SDS011;20232;49.408;8.702;2023-03-11T20:08:02;5.17;;;4.07;;
6902;SDS011;20232;49.408;8.702;2023-03-11T20:10:28;7.17;;;4.63;;
6902;SDS011;20232;49.408;8.702;2023-03-11T20:12:54;9.07;;;4.97;;
6902;SDS011;20232;49.408;8.702;2023-03-11T20:15:20;4.70;;;4.07;;
6902;SDS011;20232;49.408;8.702;2023-03-11T20:17:45;6.37;;;3.77;;
6902;SDS011;20232;49.408;8.702;2023-03-11T20:20:11;6.97;;;4.33;;
6902;SDS011;20232;49.408;8.702;2023-03-11T20:22:37;6.30;;;4.30;;
6902;SDS011;20232;49.408;8.702;2023-03-11T20:25:02;9.10;;;4.47;;
6902;SDS011;20232;49.408;8.702;2023-03-11T20:27:28;7.47;;;4.97;;
6902;SDS011;20232;49.408;8.702;2023-03-11T20:29:54;9.43;;;4.57;;
6902;SDS011;20232;49.408;8.702;2023-03-11T20:32:19;7.03;;;4.13;;
6902;SDS011;20232;49.408;8.702;2023-03-11T20:34:45;6.50;;;4.27;;
6902;SDS011;20232;49.408;8.702;2023-03-11T20:37:10;9.00;;;4.67;;
6902;SDS011;20232;49.408;8.702;2023-03-11T20:39:37;7.87;;;4.30;;
6902;SDS011;20232;49.408;8.702;2023-03-11T20:42:03;7.77;;;5.00;;
6902;SDS011;20232;49.408;8.702;2023-03-11T20:44:29;10.37;;;4.83;;
6902;SDS011;20232;49.408;8.702;2023-03-11T20:46:54;6.40;;;5.23;;
6902;SDS011;20232;49.408;8.702;2023-03-11T20:49:20;8.83;;;5.10;;
6902;SDS011;20232;49.408;8.702;2023-03-11T20:51:45;6.40;;;5.20;;
6902;SDS011;20232;49.408;8.702;2023-03-11T20:54:12;8.23;;;5.53;;
6902;SDS011;20232;49.408;8.702;2023-03-11T20:56:38;9.67;;;5.80;;
6902;SDS011;20232;49.408;8.702;2023-03-11T20:59:04;8.67;;;5.50;;
6902;SDS011;20232;49.408;8.702;2023-03-11T21:01:30;11.70;;;4.93;;
6902;SDS011;20232;49.408;8.702;2023-03-11T21:03:58;9.77;;;5.17;;
6902;SDS011;20232;49.408;8.702;2023-03-11T21:06:36;9.83;;;5.17;;
6902;SDS011;20232;49.408;8.702;2023-03-11T21:09:06;7.30;;;5.07;;
6902;SDS011;20232;49.408;8.702;2023-03-11T21:11:35;10.00;;;5.90;;
6902;SDS011;20232;49.408;8.702;2023-03-11T21:14:00;9.47;;;5.00;;
6902;SDS011;20232;49.408;8.702;2023-03-11T21:16:26;7.87;;;4.60;;
6902;SDS011;20232;49.408;8.702;2023-03-11T21:18:52;6.07;;;4.93;;
6902;SDS011;20232;49.408;8.702;2023-03-11T21:21:18;6.53;;;5.23;;
6902;SDS011;20232;49.408;8.702;2023-03-11T21:23:44;6.43;;;5.33;;
6902;SDS011;20232;49.408;8.702;2023-03-11T21:26:12;9.30;;;5.47;;
6902;SDS011;20232;49.408;8.702;2023-03-11T21:28:38;8.63;;;6.70;;
6902;SDS011;20232;49.408;8.702;2023-03-11T21:31:07;9.97;;;6.33;;
6902;SDS011;20232;49.408;8.702;2023-03-11T21:33:35;14.13;;;6.43;;
6902;SDS011;20232;49.408;8.702;2023-03-11T21:36:01;8.00;;;5.60;;
6902;SDS011;20232;49.408;8.702;2023-03-11T21:38:28;11.80;;;6.50;;
6902;SDS011;20232;49.408;8.702;2023-03-11T21:41:02;9.50;;;5.80;;
6902;SDS011;20232;49.408;8.702;2023-03-11T21:43:29;9.50;;;5.73;;
6902;SDS011;20232;49.408;8.702;2023-03-11T21:45:55;9.63;;;5.90;;
6902;SDS011;20232;49.408;8.702;2023-03-11T21:48:20;7.60;;;5.40;;
6902;SDS011;20232;49.408;8.702;2023-03-11T21:50:46;10.00;;;5.40;;
6902;SDS011;20232;49.408;8.702;2023-03-11T21:53:12;8.73;;;6.00;;
6902;SDS011;20232;49.408;8.702;2023-03-11T21:55:39;8.23;;;5.50;;
6902;SDS011;20232;49.408;8.702;2023-03-11T21:58:06;11.70;;;6.63;;
6902;SDS011;20232;49.408;8.702;2023-03-11T22:00:31;10.53;;;5.90;;